sensor_id;sensor_type;location;lat;lon;timestamp;P1;durP1;ratioP1;P2;durP2;ratioP2
6997;SDS011;3539;47.982;12.238;2022-08-25T00:01:34;7.37;;;6.67;;
6997;SDS011;3539;47.982;12.238;2022-08-25T00:04:03;6.90;;;5.90;;
6997;SDS011;3539;47.982;12.238;2022-08-25T00:06:31;7.50;;;6.50;;
6997;SDS011;3539;47.982;12.238;2022-08-25T00:08:58;6.17;;;5.63;;
6997;SDS011;3539;47.982;12.238;2022-08-25T00:11:25;7.33;;;6.73;;
6997;SDS011;3539;47.982;12.238;2022-08-25T00:13:56;6.40;;;5.90;;
6997;SDS011;3539;47.982;12.238;2022-08-25T00:16:26;6.37;;;5.77;;
6997;SDS011;3539;47.982;12.238;2022-08-25T00:18:56;6.93;;;6.30;;
6997;SDS011;3539;47.982;12.238;2022-08-25T00:21:24;5.93;;;5.33;;
6997;SDS011;3539;47.982;12.238;2022-08-25T00:23:51;5.73;;;5.33;;
6997;SDS011;3539;47.982;12.238;2022-08-25T00:26:19;6.30;;;5.67;;
6997;SDS011;3539;47.982;12.238;2022-08-25T00:28:46;6.27;;;5.73;;
6997;SDS011;3539;47.982;12.238;2022-08-25T00:31:13;7.30;;;6.60;;
6997;SDS011;3539;47.982;12.238;2022-08-25T00:33:45;8.47;;;7.67;;
6997;SDS011;3539;47.982;12.238;2022-08-25T00:36:13;8.50;;;7.60;;
6997;SDS011;3539;47.982;12.238;2022-08-25T00:38:41;8.53;;;7.73;;
6997;SDS011;3539;47.982;12.238;2022-08-25T00:41:09;9.20;;;7.57;;
6997;SDS011;3539;47.982;12.238;2022-08-25T00:43:42;8.27;;;7.47;;
6997;SDS011;3539;47.982;12.238;2022-08-25T00:46:11;8.67;;;7.87;;
6997;SDS011;3539;47.982;12.238;2022-08-25T00:48:40;8.70;;;7.87;;
6997;SDS011;3539;47.982;12.238;2022-08-25T00:51:10;9.33;;;7.83;;
6997;SDS011;3539;47.982;12.238;2022-08-25T00:53:40;9.37;;;8.47;;
6997;SDS011;3539;47.982;12.238;2022-08-25T00:56:08;8.63;;;7.83;;
6997;SDS011;3539;47.982;12.238;2022-08-25T00:58:35;11.07;;;8.20;;
6997;SDS011;3539;47.982;12.238;2022-08-25T01:01:02;9.70;;;8.10;;
6997;SDS011;3539;47.982;12.238;2022-08-25T01:03:29;7.90;;;7.07;;
6997;SDS011;3539;47.982;12.238;2022-08-25T01:05:58;7.97;;;7.17;;
6997;SDS011;3539;47.982;12.238;2022-08-25T01:08:28;7.83;;;6.70;;
6997;SDS011;3539;47.982;12.238;2022-08-25T01:10:57;6.90;;;6.20;;
6997;SDS011;3539;47.982;12.238;2022-08-25T01:13:25;6.90;;;6.30;;
6997;SDS011;3539;47.982;12.238;2022-08-25T01:15:56;7.90;;;7.20;;
6997;SDS011;3539;47.982;12.238;2022-08-25T01:18:23;7.97;;;7.17;;
6997;SDS011;3539;47.982;12.238;2022-08-25T01:20:52;7.23;;;6.53;;
6997;SDS011;3539;47.982;12.238;2022-08-25T01:23:20;7.37;;;6.60;;
6997;SDS011;3539;47.982;12.238;2022-08-25T01:25:47;6.83;;;6.23;;
6997;SDS011;3539;47.982;12.238;2022-08-25T01:28:19;7.13;;;6.43;;
6997;SDS011;3539;47.982;12.238;2022-08-25T01:30:46;7.37;;;6.60;;
6997;SDS011;3539;47.982;12.238;2022-08-25T01:33:13;6.63;;;5.97;;
6997;SDS011;3539;47.982;12.238;2022-08-25T01:35:41;6.33;;;5.73;;
6997;SDS011;3539;47.982;12.238;2022-08-25T01:38:10;7.03;;;6.33;;
6997;SDS011;3539;47.982;12.238;2022-08-25T01:40:37;6.73;;;6.13;;
6997;SDS011;3539;47.982;12.238;2022-08-25T01:43:06;7.13;;;6.53;;
6997;SDS011;3539;47.982;12.238;2022-08-25T01:45:38;8.13;;;6.30;;
6997;SDS011;3539;47.982;12.238;2022-08-25T01:48:06;6.83;;;6.23;;
6997;SDS011;3539;47.982;12.238;2022-08-25T01:50:33;7.53;;;6.87;;
6997;SDS011;3539;47.982;12.238;2022-08-25T01:53:02;7.40;;;6.70;;
6997;SDS011;3539;47.982;12.238;2022-08-25T01:55:31;8.33;;;6.90;;
6997;SDS011;3539;47.982;12.238;2022-08-25T01:58:15;7.20;;;6.50;;
6997;SDS011;3539;47.982;12.238;2022-08-25T02:00:43;7.67;;;6.87;;
6997;SDS011;3539;47.982;12.238;2022-08-25T02:03:10;7.10;;;6.50;;
6997;SDS011;3539;47.982;12.238;2022-08-25T02:05:37;8.13;;;6.97;;
6997;SDS011;3539;47.982;12.238;2022-08-25T02:08:04;7.37;;;6.67;;
6997;SDS011;3539;47.982;12.238;2022-08-25T02:10:32;7.73;;;6.33;;
6997;SDS011;3539;47.982;12.238;2022-08-25T02:12:59;8.10;;;6.57;;
6997;SDS011;3539;47.982;12.238;2022-08-25T02:15:26;7.23;;;6.53;;
6997;SDS011;3539;47.982;12.238;2022-08-25T02:17:55;5.97;;;5.37;;
6997;SDS011;3539;47.982;12.238;2022-08-25T02:20:22;6.90;;;6.30;;
6997;SDS011;3539;47.982;12.238;2022-08-25T02:22:49;6.00;;;5.50;;
6997;SDS011;3539;47.982;12.238;2022-08-25T02:25:16;6.30;;;5.77;;
6997;SDS011;3539;47.982;12.238;2022-08-25T02:27:45;6.40;;;5.80;;
6997;SDS011;3539;47.982;12.238;2022-08-25T02:30:12;5.87;;;5.37;;
6997;SDS011;3539;47.982;12.238;2022-08-25T02:32:40;5.77;;;5.23;;
6997;SDS011;3539;47.982;12.238;2022-08-25T02:35:07;6.43;;;5.20;;
6997;SDS011;3539;47.982;12.238;2022-08-25T02:37:34;6.20;;;5.60;;
6997;SDS011;3539;47.982;12.238;2022-08-25T02:40:02;7.17;;;5.87;;
6997;SDS011;3539;47.982;12.238;2022-08-25T02:42:29;6.87;;;6.27;;
6997;SDS011;3539;47.982;12.238;2022-08-25T02:44:57;6.60;;;6.00;;
6997;SDS011;3539;47.982;12.238;2022-08-25T02:47:24;7.10;;;6.40;;
6997;SDS011;3539;47.982;12.238;2022-08-25T02:49:51;7.57;;;6.87;;
6997;SDS011;3539;47.982;12.238;2022-08-25T02:52:20;6.47;;;5.87;;
6997;SDS011;3539;47.982;12.238;2022-08-25T02:54:47;6.67;;;5.43;;
6997;SDS011;3539;47.982;12.238;2022-08-25T02:57:14;6.30;;;5.80;;
6997;SDS011;3539;47.982;12.238;2022-08-25T02:59:42;6.93;;;5.90;;
6997;SDS011;3539;47.982;12.238;2022-08-25T03:02:12;5.93;;;5.33;;
6997;SDS011;3539;47.982;12.238;2022-08-25T03:04:40;5.87;;;5.37;;
6997;SDS011;3539;47.982;12.238;2022-08-25T03:07:08;5.23;;;4.73;;
6997;SDS011;3539;47.982;12.238;2022-08-25T03:09:35;6.43;;;5.93;;
6997;SDS011;3539;47.982;12.238;2022-08-25T03:12:02;6.50;;;5.80;;
6997;SDS011;3539;47.982;12.238;2022-08-25T03:14:29;6.97;;;6.27;;
6997;SDS011;3539;47.982;12.238;2022-08-25T03:16:56;6.20;;;5.60;;
6997;SDS011;3539;47.982;12.238;2022-08-25T03:19:25;6.80;;;6.10;;
6997;SDS011;3539;47.982;12.238;2022-08-25T03:21:51;7.43;;;6.43;;
6997;SDS011;3539;47.982;12.238;2022-08-25T03:24:20;7.13;;;6.43;;
6997;SDS011;3539;47.982;12.238;2022-08-25T03:26:47;6.20;;;5.67;;
6997;SDS011;3539;47.982;12.238;2022-08-25T03:29:20;6.93;;;6.27;;
6997;SDS011;3539;47.982;12.238;2022-08-25T03:31:47;7.27;;;6.47;;
6997;SDS011;3539;47.982;12.238;2022-08-25T03:34:15;7.23;;;6.63;;
6997;SDS011;3539;47.982;12.238;2022-08-25T03:36:44;7.10;;;6.40;;
6997;SDS011;3539;47.982;12.238;2022-08-25T03:39:12;8.70;;;7.03;;
6997;SDS011;3539;47.982;12.238;2022-08-25T03:41:39;7.77;;;7.07;;
6997;SDS011;3539;47.982;12.238;2022-08-25T03:44:06;7.30;;;6.60;;
6997;SDS011;3539;47.982;12.238;2022-08-25T03:46:37;7.13;;;6.07;;
6997;SDS011;3539;47.982;12.238;2022-08-25T03:49:06;6.60;;;5.90;;
6997;SDS011;3539;47.982;12.238;2022-08-25T03:51:35;6.40;;;5.80;;
6997;SDS011;3539;47.982;12.238;2022-08-25T03:54:06;6.60;;;6.00;;
6997;SDS011;3539;47.982;12.238;2022-08-25T03:56:34;6.27;;;5.67;;
6997;SDS011;3539;47.982;12.238;2022-08-25T03:59:01;6.10;;;5.50;;
6997;SDS011;3539;47.982;12.238;2022-08-25T04:01:28;6.50;;;5.90;;
6997;SDS011;3539;47.982;12.238;2022-08-25T04:03:54;6.60;;;6.00;;
6997;SDS011;3539;47.982;12.238;2022-08-25T04:06:21;6.07;;;5.47;;
6997;SDS011;3539;47.982;12.238;2022-08-25T04:08:48;6.10;;;5.50;;
6997;SDS011;3539;47.982;12.238;2022-08-25T04:11:18;5.97;;;5.47;;
6997;SDS011;3539;47.982;12.238;2022-08-25T04:13:47;5.63;;;5.13;;
6997;SDS011;3539;47.982;12.238;2022-08-25T04:16:14;6.40;;;5.40;;
6997;SDS011;3539;47.982;12.238;2022-08-25T04:18:43;8.20;;;6.47;;
6997;SDS011;3539;47.982;12.238;2022-08-25T04:21:10;6.30;;;5.70;;
6997;SDS011;3539;47.982;12.238;2022-08-25T04:23:38;6.23;;;5.63;;
6997;SDS011;3539;47.982;12.238;2022-08-25T04:26:09;7.97;;;6.50;;
6997;SDS011;3539;47.982;12.238;2022-08-25T04:28:38;6.70;;;6.10;;
6997;SDS011;3539;47.982;12.238;2022-08-25T04:31:05;6.20;;;5.60;;
6997;SDS011;3539;47.982;12.238;2022-08-25T04:33:33;7.47;;;6.70;;
6997;SDS011;3539;47.982;12.238;2022-08-25T04:36:00;8.10;;;6.43;;
6997;SDS011;3539;47.982;12.238;2022-08-25T04:38:27;7.07;;;6.37;;
6997;SDS011;3539;47.982;12.238;2022-08-25T04:40:55;10.37;;;7.60;;
6997;SDS011;3539;47.982;12.238;2022-08-25T04:43:22;9.53;;;8.57;;
6997;SDS011;3539;47.982;12.238;2022-08-25T04:45:50;10.23;;;9.27;;
6997;SDS011;3539;47.982;12.238;2022-08-25T04:48:17;10.83;;;9.73;;
6997;SDS011;3539;47.982;12.238;2022-08-25T04:50:44;10.33;;;9.33;;
6997;SDS011;3539;47.982;12.238;2022-08-25T04:53:12;9.83;;;8.70;;
6997;SDS011;3539;47.982;12.238;2022-08-25T04:55:39;10.00;;;9.10;;
6997;SDS011;3539;47.982;12.238;2022-08-25T04:58:06;9.60;;;8.70;;
6997;SDS011;3539;47.982;12.238;2022-08-25T05:00:33;10.30;;;9.00;;
6997;SDS011;3539;47.982;12.238;2022-08-25T05:03:02;10.63;;;8.87;;
6997;SDS011;3539;47.982;12.238;2022-08-25T05:05:29;8.67;;;7.80;;
6997;SDS011;3539;47.982;12.238;2022-08-25T05:07:56;9.03;;;8.13;;
6997;SDS011;3539;47.982;12.238;2022-08-25T05:10:23;7.80;;;7.10;;
6997;SDS011;3539;47.982;12.238;2022-08-25T05:12:50;8.87;;;7.97;;
6997;SDS011;3539;47.982;12.238;2022-08-25T05:15:17;9.97;;;9.03;;
6997;SDS011;3539;47.982;12.238;2022-08-25T05:18:02;9.67;;;8.77;;
6997;SDS011;3539;47.982;12.238;2022-08-25T05:20:29;8.77;;;7.87;;
6997;SDS011;3539;47.982;12.238;2022-08-25T05:22:57;8.40;;;7.60;;
6997;SDS011;3539;47.982;12.238;2022-08-25T05:25:24;8.40;;;7.60;;
6997;SDS011;3539;47.982;12.238;2022-08-25T05:27:51;9.57;;;7.57;;
6997;SDS011;3539;47.982;12.238;2022-08-25T05:30:17;11.57;;;8.63;;
6997;SDS011;3539;47.982;12.238;2022-08-25T05:32:44;8.70;;;7.90;;
6997;SDS011;3539;47.982;12.238;2022-08-25T05:35:12;9.03;;;8.17;;
6997;SDS011;3539;47.982;12.238;2022-08-25T05:37:39;9.07;;;7.80;;
6997;SDS011;3539;47.982;12.238;2022-08-25T05:40:06;8.90;;;8.10;;
6997;SDS011;3539;47.982;12.238;2022-08-25T05:42:34;9.40;;;8.40;;
6997;SDS011;3539;47.982;12.238;2022-08-25T05:45:01;9.60;;;8.57;;
6997;SDS011;3539;47.982;12.238;2022-08-25T05:47:28;11.73;;;8.50;;
6997;SDS011;3539;47.982;12.238;2022-08-25T05:49:55;11.03;;;9.93;;
6997;SDS011;3539;47.982;12.238;2022-08-25T05:52:23;11.77;;;10.77;;
6997;SDS011;3539;47.982;12.238;2022-08-25T05:54:51;12.53;;;10.23;;
6997;SDS011;3539;47.982;12.238;2022-08-25T05:57:18;13.23;;;11.83;;
6997;SDS011;3539;47.982;12.238;2022-08-25T05:59:45;12.17;;;10.97;;
6997;SDS011;3539;47.982;12.238;2022-08-25T06:02:12;13.17;;;11.87;;
6997;SDS011;3539;47.982;12.238;2022-08-25T06:04:55;13.73;;;12.23;;
6997;SDS011;3539;47.982;12.238;2022-08-25T06:07:24;13.33;;;11.97;;
6997;SDS011;3539;47.982;12.238;2022-08-25T06:09:51;14.00;;;12.63;;
6997;SDS011;3539;47.982;12.238;2022-08-25T06:12:17;13.57;;;12.27;;
6997;SDS011;3539;47.982;12.238;2022-08-25T06:14:45;14.57;;;12.23;;
6997;SDS011;3539;47.982;12.238;2022-08-25T06:17:13;14.87;;;13.37;;
6997;SDS011;3539;47.982;12.238;2022-08-25T06:19:40;16.20;;;12.47;;
6997;SDS011;3539;47.982;12.238;2022-08-25T06:22:07;15.87;;;12.57;;
6997;SDS011;3539;47.982;12.238;2022-08-25T06:24:35;14.03;;;12.07;;
6997;SDS011;3539;47.982;12.238;2022-08-25T06:27:01;13.10;;;11.80;;
6997;SDS011;3539;47.982;12.238;2022-08-25T06:29:28;15.07;;;13.57;;
6997;SDS011;3539;47.982;12.238;2022-08-25T06:31:55;13.80;;;12.43;;
6997;SDS011;3539;47.982;12.238;2022-08-25T06:34:22;13.70;;;12.30;;
6997;SDS011;3539;47.982;12.238;2022-08-25T06:36:52;14.27;;;12.97;;
6997;SDS011;3539;47.982;12.238;2022-08-25T06:39:21;16.40;;;13.43;;
6997;SDS011;3539;47.982;12.238;2022-08-25T06:44:45;13.00;;;11.77;;
6997;SDS011;3539;47.982;12.238;2022-08-25T06:47:11;13.40;;;12.10;;
6997;SDS011;3539;47.982;12.238;2022-08-25T06:49:39;12.03;;;10.77;;
6997;SDS011;3539;47.982;12.238;2022-08-25T06:52:06;11.57;;;10.37;;
6997;SDS011;3539;47.982;12.238;2022-08-25T06:54:34;13.93;;;11.20;;
6997;SDS011;3539;47.982;12.238;2022-08-25T06:57:01;12.27;;;10.97;;
6997;SDS011;3539;47.982;12.238;2022-08-25T06:59:29;12.37;;;10.37;;
6997;SDS011;3539;47.982;12.238;2022-08-25T07:01:56;12.33;;;10.60;;
6997;SDS011;3539;47.982;12.238;2022-08-25T07:04:23;11.27;;;10.07;;
6997;SDS011;3539;47.982;12.238;2022-08-25T07:06:50;10.87;;;9.60;;
6997;SDS011;3539;47.982;12.238;2022-08-25T07:09:17;12.90;;;10.10;;
6997;SDS011;3539;47.982;12.238;2022-08-25T07:11:44;10.53;;;9.43;;
6997;SDS011;3539;47.982;12.238;2022-08-25T07:14:12;11.73;;;9.27;;
6997;SDS011;3539;47.982;12.238;2022-08-25T07:16:42;10.60;;;9.57;;
6997;SDS011;3539;47.982;12.238;2022-08-25T07:19:10;11.70;;;10.50;;
6997;SDS011;3539;47.982;12.238;2022-08-25T07:21:37;10.53;;;9.50;;
6997;SDS011;3539;47.982;12.238;2022-08-25T07:24:05;10.10;;;9.03;;
6997;SDS011;3539;47.982;12.238;2022-08-25T07:26:33;9.77;;;8.87;;
6997;SDS011;3539;47.982;12.238;2022-08-25T07:29:01;10.17;;;8.80;;
6997;SDS011;3539;47.982;12.238;2022-08-25T07:31:28;10.43;;;9.37;;
6997;SDS011;3539;47.982;12.238;2022-08-25T07:33:57;10.23;;;9.33;;
6997;SDS011;3539;47.982;12.238;2022-08-25T07:36:41;9.00;;;8.10;;
6997;SDS011;3539;47.982;12.238;2022-08-25T07:39:08;11.77;;;9.13;;
6997;SDS011;3539;47.982;12.238;2022-08-25T07:41:35;9.70;;;8.70;;
6997;SDS011;3539;47.982;12.238;2022-08-25T07:44:04;10.27;;;8.57;;
6997;SDS011;3539;47.982;12.238;2022-08-25T07:46:30;9.60;;;8.63;;
6997;SDS011;3539;47.982;12.238;2022-08-25T07:49:00;11.00;;;8.30;;
6997;SDS011;3539;47.982;12.238;2022-08-25T07:51:51;8.77;;;7.87;;
6997;SDS011;3539;47.982;12.238;2022-08-25T07:54:19;8.70;;;7.80;;
6997;SDS011;3539;47.982;12.238;2022-08-25T07:56:47;7.93;;;6.93;;
6997;SDS011;3539;47.982;12.238;2022-08-25T07:59:13;5.73;;;5.13;;
6997;SDS011;3539;47.982;12.238;2022-08-25T08:01:40;5.10;;;4.70;;
6997;SDS011;3539;47.982;12.238;2022-08-25T08:04:08;5.00;;;4.50;;
6997;SDS011;3539;47.982;12.238;2022-08-25T08:06:35;4.93;;;4.50;;
6997;SDS011;3539;47.982;12.238;2022-08-25T08:09:02;5.87;;;5.17;;
6997;SDS011;3539;47.982;12.238;2022-08-25T08:11:30;5.80;;;5.23;;
6997;SDS011;3539;47.982;12.238;2022-08-25T08:13:58;6.37;;;5.40;;
6997;SDS011;3539;47.982;12.238;2022-08-25T08:16:26;5.80;;;5.20;;
6997;SDS011;3539;47.982;12.238;2022-08-25T08:18:55;6.60;;;6.00;;
6997;SDS011;3539;47.982;12.238;2022-08-25T08:21:25;6.30;;;5.70;;
6997;SDS011;3539;47.982;12.238;2022-08-25T08:23:54;6.40;;;5.57;;
6997;SDS011;3539;47.982;12.238;2022-08-25T08:26:21;5.67;;;5.13;;
6997;SDS011;3539;47.982;12.238;2022-08-25T08:28:50;6.43;;;5.83;;
6997;SDS011;3539;47.982;12.238;2022-08-25T08:31:17;8.73;;;5.97;;
6997;SDS011;3539;47.982;12.238;2022-08-25T08:33:45;7.87;;;6.00;;
6997;SDS011;3539;47.982;12.238;2022-08-25T08:36:12;7.77;;;6.37;;
6997;SDS011;3539;47.982;12.238;2022-08-25T08:38:41;6.10;;;5.50;;
6997;SDS011;3539;47.982;12.238;2022-08-25T08:41:11;6.00;;;5.40;;
6997;SDS011;3539;47.982;12.238;2022-08-25T08:44:02;5.93;;;4.77;;
6997;SDS011;3539;47.982;12.238;2022-08-25T08:46:35;7.37;;;4.40;;
6997;SDS011;3539;47.982;12.238;2022-08-25T08:49:08;5.13;;;4.63;;
6997;SDS011;3539;47.982;12.238;2022-08-25T08:51:38;6.30;;;5.67;;
6997;SDS011;3539;47.982;12.238;2022-08-25T08:54:13;5.40;;;4.77;;
6997;SDS011;3539;47.982;12.238;2022-08-25T08:56:45;5.30;;;4.90;;
6997;SDS011;3539;47.982;12.238;2022-08-25T08:59:15;5.00;;;4.50;;
6997;SDS011;3539;47.982;12.238;2022-08-25T09:01:46;6.27;;;4.30;;
6997;SDS011;3539;47.982;12.238;2022-08-25T09:04:17;5.17;;;4.33;;
6997;SDS011;3539;47.982;12.238;2022-08-25T09:06:52;4.83;;;4.40;;
6997;SDS011;3539;47.982;12.238;2022-08-25T09:09:24;4.23;;;3.90;;
6997;SDS011;3539;47.982;12.238;2022-08-25T09:11:55;4.43;;;4.03;;
6997;SDS011;3539;47.982;12.238;2022-08-25T09:17:13;5.20;;;4.00;;
6997;SDS011;3539;47.982;12.238;2022-08-25T09:19:52;5.20;;;3.90;;
6997;SDS011;3539;47.982;12.238;2022-08-25T09:22:40;4.23;;;3.70;;
6997;SDS011;3539;47.982;12.238;2022-08-25T09:25:14;4.03;;;3.43;;
6997;SDS011;3539;47.982;12.238;2022-08-25T09:27:46;3.57;;;3.27;;
6997;SDS011;3539;47.982;12.238;2022-08-25T09:30:17;4.20;;;3.67;;
6997;SDS011;3539;47.982;12.238;2022-08-25T09:32:46;4.17;;;3.50;;
6997;SDS011;3539;47.982;12.238;2022-08-25T09:35:15;3.23;;;2.80;;
6997;SDS011;3539;47.982;12.238;2022-08-25T09:37:53;3.47;;;3.17;;
6997;SDS011;3539;47.982;12.238;2022-08-25T09:40:24;3.07;;;2.80;;
6997;SDS011;3539;47.982;12.238;2022-08-25T09:42:52;3.40;;;3.10;;
6997;SDS011;3539;47.982;12.238;2022-08-25T09:48:19;3.38;;;2.80;;
6997;SDS011;3539;47.982;12.238;2022-08-25T09:50:48;4.57;;;2.83;;
6997;SDS011;3539;47.982;12.238;2022-08-25T09:53:16;3.90;;;3.13;;
6997;SDS011;3539;47.982;12.238;2022-08-25T09:55:45;3.30;;;3.00;;
6997;SDS011;3539;47.982;12.238;2022-08-25T09:58:15;3.65;;;3.30;;
6997;SDS011;3539;47.982;12.238;2022-08-25T10:00:44;3.88;;;2.85;;
6997;SDS011;3539;47.982;12.238;2022-08-25T10:03:27;3.60;;;3.30;;
6997;SDS011;3539;47.982;12.238;2022-08-25T10:06:01;3.45;;;3.08;;
6997;SDS011;3539;47.982;12.238;2022-08-25T10:08:32;4.10;;;2.80;;
6997;SDS011;3539;47.982;12.238;2022-08-25T10:11:03;3.13;;;2.83;;
6997;SDS011;3539;47.982;12.238;2022-08-25T10:13:40;3.22;;;2.92;;
6997;SDS011;3539;47.982;12.238;2022-08-25T10:16:10;3.03;;;2.67;;
6997;SDS011;3539;47.982;12.238;2022-08-25T10:18:40;3.40;;;3.05;;
6997;SDS011;3539;47.982;12.238;2022-08-25T10:21:09;3.40;;;3.15;;
6997;SDS011;3539;47.982;12.238;2022-08-25T10:23:38;4.15;;;3.47;;
6997;SDS011;3539;47.982;12.238;2022-08-25T10:26:10;3.10;;;2.80;;
6997;SDS011;3539;47.982;12.238;2022-08-25T10:28:45;3.35;;;3.05;;
6997;SDS011;3539;47.982;12.238;2022-08-25T10:31:20;3.72;;;3.33;;
6997;SDS011;3539;47.982;12.238;2022-08-25T10:33:53;6.38;;;3.58;;
6997;SDS011;3539;47.982;12.238;2022-08-25T10:36:28;6.53;;;3.70;;
6997;SDS011;3539;47.982;12.238;2022-08-25T10:39:05;3.88;;;3.53;;
6997;SDS011;3539;47.982;12.238;2022-08-25T10:41:39;6.65;;;3.85;;
6997;SDS011;3539;47.982;12.238;2022-08-25T10:44:14;7.30;;;3.80;;
6997;SDS011;3539;47.982;12.238;2022-08-25T10:47:10;3.85;;;3.53;;
6997;SDS011;3539;47.982;12.238;2022-08-25T10:49:46;4.63;;;4.22;;
6997;SDS011;3539;47.982;12.238;2022-08-25T10:52:15;6.10;;;4.55;;
6997;SDS011;3539;47.982;12.238;2022-08-25T10:54:57;5.22;;;4.70;;
6997;SDS011;3539;47.982;12.238;2022-08-25T10:57:33;7.53;;;4.97;;
6997;SDS011;3539;47.982;12.238;2022-08-25T11:00:03;8.38;;;5.50;;
6997;SDS011;3539;47.982;12.238;2022-08-25T11:02:36;8.40;;;5.50;;
6997;SDS011;3539;47.982;12.238;2022-08-25T11:05:19;9.43;;;5.50;;
6997;SDS011;3539;47.982;12.238;2022-08-25T11:07:50;7.00;;;5.32;;
6997;SDS011;3539;47.982;12.238;2022-08-25T11:10:21;11.68;;;5.75;;
6997;SDS011;3539;47.982;12.238;2022-08-25T11:12:53;9.45;;;5.63;;
6997;SDS011;3539;47.982;12.238;2022-08-25T11:15:22;8.73;;;5.88;;
6997;SDS011;3539;47.982;12.238;2022-08-25T11:17:51;6.30;;;5.32;;
6997;SDS011;3539;47.982;12.238;2022-08-25T11:20:20;8.23;;;4.97;;
6997;SDS011;3539;47.982;12.238;2022-08-25T11:22:49;7.20;;;5.65;;
6997;SDS011;3539;47.982;12.238;2022-08-25T11:25:19;11.50;;;5.93;;
6997;SDS011;3539;47.982;12.238;2022-08-25T11:27:51;7.05;;;5.55;;
6997;SDS011;3539;47.982;12.238;2022-08-25T11:30:23;10.52;;;5.53;;
6997;SDS011;3539;47.982;12.238;2022-08-25T11:32:51;7.95;;;5.70;;
6997;SDS011;3539;47.982;12.238;2022-08-25T11:35:24;7.38;;;5.45;;
6997;SDS011;3539;47.982;12.238;2022-08-25T11:37:57;8.15;;;5.70;;
6997;SDS011;3539;47.982;12.238;2022-08-25T11:40:45;10.13;;;6.20;;
6997;SDS011;3539;47.982;12.238;2022-08-25T11:43:26;10.20;;;4.93;;
6997;SDS011;3539;47.982;12.238;2022-08-25T11:46:02;6.03;;;4.90;;
6997;SDS011;3539;47.982;12.238;2022-08-25T11:48:46;6.00;;;4.85;;
6997;SDS011;3539;47.982;12.238;2022-08-25T11:51:29;6.25;;;4.65;;
6997;SDS011;3539;47.982;12.238;2022-08-25T11:54:05;8.18;;;5.40;;
6997;SDS011;3539;47.982;12.238;2022-08-25T11:56:49;7.90;;;5.07;;
6997;SDS011;3539;47.982;12.238;2022-08-25T12:02:32;12.70;;;5.90;;
6997;SDS011;3539;47.982;12.238;2022-08-25T12:05:02;5.65;;;5.15;;
6997;SDS011;3539;47.982;12.238;2022-08-25T12:10:57;11.15;;;6.35;;
6997;SDS011;3539;47.982;12.238;2022-08-25T12:13:42;11.45;;;5.90;;
6997;SDS011;3539;47.982;12.238;2022-08-25T12:21:54;8.90;;;5.70;;
6997;SDS011;3539;47.982;12.238;2022-08-25T12:24:24;9.75;;;5.60;;
6997;SDS011;3539;47.982;12.238;2022-08-25T12:27:11;7.05;;;5.40;;
6997;SDS011;3539;47.982;12.238;2022-08-25T12:29:49;6.63;;;5.38;;
6997;SDS011;3539;47.982;12.238;2022-08-25T12:32:25;10.90;;;5.90;;
6997;SDS011;3539;47.982;12.238;2022-08-25T12:37:55;10.15;;;6.28;;
6997;SDS011;3539;47.982;12.238;2022-08-25T12:40:24;10.93;;;6.00;;
6997;SDS011;3539;47.982;12.238;2022-08-25T12:42:59;9.00;;;6.18;;
6997;SDS011;3539;47.982;12.238;2022-08-25T12:45:31;8.73;;;5.85;;
6997;SDS011;3539;47.982;12.238;2022-08-25T12:51:09;10.25;;;6.10;;
6997;SDS011;3539;47.982;12.238;2022-08-25T12:53:42;9.90;;;6.40;;
6997;SDS011;3539;47.982;12.238;2022-08-25T12:56:15;10.85;;;6.68;;
6997;SDS011;3539;47.982;12.238;2022-08-25T12:58:46;12.55;;;6.88;;
6997;SDS011;3539;47.982;12.238;2022-08-25T13:01:18;9.55;;;7.10;;
6997;SDS011;3539;47.982;12.238;2022-08-25T13:04:07;14.52;;;7.88;;
6997;SDS011;3539;47.982;12.238;2022-08-25T13:06:47;11.93;;;6.85;;
6997;SDS011;3539;47.982;12.238;2022-08-25T13:09:35;10.88;;;6.53;;
6997;SDS011;3539;47.982;12.238;2022-08-25T13:12:30;9.70;;;6.32;;
6997;SDS011;3539;47.982;12.238;2022-08-25T13:15:03;11.82;;;6.75;;
6997;SDS011;3539;47.982;12.238;2022-08-25T13:17:32;10.35;;;6.60;;
6997;SDS011;3539;47.982;12.238;2022-08-25T13:20:10;11.68;;;6.88;;
6997;SDS011;3539;47.982;12.238;2022-08-25T13:22:44;10.27;;;7.63;;
6997;SDS011;3539;47.982;12.238;2022-08-25T13:25:14;11.88;;;7.00;;
6997;SDS011;3539;47.982;12.238;2022-08-25T13:27:48;12.60;;;7.00;;
6997;SDS011;3539;47.982;12.238;2022-08-25T13:30:21;10.90;;;6.88;;
6997;SDS011;3539;47.982;12.238;2022-08-25T13:32:49;11.95;;;7.40;;
6997;SDS011;3539;47.982;12.238;2022-08-25T13:35:18;13.82;;;7.65;;
6997;SDS011;3539;47.982;12.238;2022-08-25T13:37:51;12.68;;;6.70;;
6997;SDS011;3539;47.982;12.238;2022-08-25T13:40:23;9.07;;;6.90;;
6997;SDS011;3539;47.982;12.238;2022-08-25T13:42:52;18.52;;;7.35;;
6997;SDS011;3539;47.982;12.238;2022-08-25T13:45:25;15.07;;;7.22;;
6997;SDS011;3539;47.982;12.238;2022-08-25T13:47:53;8.70;;;7.00;;
6997;SDS011;3539;47.982;12.238;2022-08-25T13:50:21;12.30;;;6.65;;
6997;SDS011;3539;47.982;12.238;2022-08-25T13:52:59;10.88;;;6.88;;
6997;SDS011;3539;47.982;12.238;2022-08-25T13:55:31;8.70;;;6.30;;
6997;SDS011;3539;47.982;12.238;2022-08-25T13:58:00;12.57;;;7.03;;
6997;SDS011;3539;47.982;12.238;2022-08-25T14:00:30;14.18;;;6.75;;
6997;SDS011;3539;47.982;12.238;2022-08-25T14:02:59;11.85;;;7.22;;
6997;SDS011;3539;47.982;12.238;2022-08-25T14:05:30;13.73;;;7.32;;
6997;SDS011;3539;47.982;12.238;2022-08-25T14:08:25;10.98;;;7.10;;
6997;SDS011;3539;47.982;12.238;2022-08-25T14:11:01;12.27;;;7.07;;
6997;SDS011;3539;47.982;12.238;2022-08-25T14:13:42;17.15;;;7.70;;
6997;SDS011;3539;47.982;12.238;2022-08-25T14:16:26;14.57;;;7.80;;
6997;SDS011;3539;47.982;12.238;2022-08-25T14:18:57;15.50;;;7.35;;
6997;SDS011;3539;47.982;12.238;2022-08-25T14:21:28;8.45;;;7.15;;
6997;SDS011;3539;47.982;12.238;2022-08-25T14:23:59;12.18;;;7.43;;
6997;SDS011;3539;47.982;12.238;2022-08-25T14:26:27;10.63;;;6.90;;
6997;SDS011;3539;47.982;12.238;2022-08-25T14:28:54;11.80;;;7.13;;
6997;SDS011;3539;47.982;12.238;2022-08-25T14:31:23;14.80;;;7.10;;
6997;SDS011;3539;47.982;12.238;2022-08-25T14:33:53;17.60;;;6.93;;
6997;SDS011;3539;47.982;12.238;2022-08-25T14:36:22;13.50;;;6.75;;
6997;SDS011;3539;47.982;12.238;2022-08-25T14:38:50;13.38;;;6.88;;
6997;SDS011;3539;47.982;12.238;2022-08-25T14:41:20;13.80;;;6.70;;
6997;SDS011;3539;47.982;12.238;2022-08-25T14:43:47;12.90;;;6.80;;
6997;SDS011;3539;47.982;12.238;2022-08-25T14:46:17;12.68;;;6.88;;
6997;SDS011;3539;47.982;12.238;2022-08-25T14:48:48;12.65;;;7.55;;
6997;SDS011;3539;47.982;12.238;2022-08-25T14:51:18;10.80;;;6.88;;
6997;SDS011;3539;47.982;12.238;2022-08-25T14:53:47;9.60;;;6.90;;
6997;SDS011;3539;47.982;12.238;2022-08-25T14:56:16;14.50;;;6.68;;
6997;SDS011;3539;47.982;12.238;2022-08-25T14:58:44;13.52;;;6.75;;
6997;SDS011;3539;47.982;12.238;2022-08-25T15:01:12;14.27;;;6.65;;
6997;SDS011;3539;47.982;12.238;2022-08-25T15:03:42;13.70;;;6.70;;
6997;SDS011;3539;47.982;12.238;2022-08-25T15:06:19;11.50;;;7.13;;
6997;SDS011;3539;47.982;12.238;2022-08-25T15:08:49;10.88;;;6.85;;
6997;SDS011;3539;47.982;12.238;2022-08-25T15:11:39;11.02;;;6.38;;
6997;SDS011;3539;47.982;12.238;2022-08-25T15:14:10;10.70;;;6.13;;
6997;SDS011;3539;47.982;12.238;2022-08-25T15:16:40;11.43;;;6.63;;
6997;SDS011;3539;47.982;12.238;2022-08-25T15:19:09;8.75;;;6.43;;
6997;SDS011;3539;47.982;12.238;2022-08-25T15:21:40;10.80;;;6.03;;
6997;SDS011;3539;47.982;12.238;2022-08-25T15:24:09;11.27;;;6.30;;
6997;SDS011;3539;47.982;12.238;2022-08-25T15:26:37;14.90;;;6.55;;
6997;SDS011;3539;47.982;12.238;2022-08-25T15:29:05;11.57;;;6.57;;
6997;SDS011;3539;47.982;12.238;2022-08-25T15:31:34;12.30;;;7.05;;
6997;SDS011;3539;47.982;12.238;2022-08-25T15:34:01;16.30;;;7.20;;
6997;SDS011;3539;47.982;12.238;2022-08-25T15:36:28;15.93;;;7.22;;
6997;SDS011;3539;47.982;12.238;2022-08-25T15:38:59;10.98;;;7.18;;
6997;SDS011;3539;47.982;12.238;2022-08-25T15:41:28;10.82;;;6.90;;